Time;durP1;ratioP1;P1;durP2;ratioP2;P2;SDS_P1;SDS_P2;PMS_P1;PMS_P2;Temp;Humidity;BMP_temperature;BMP_pressure;BME280_temperature;BME280_humidity;BME280_pressure;Samples;Min_cycle;Max_cycle;Signal;HPM_P1;HPM_P2
2021/01/30 00:00:55;;;;;;;4.27;1.90;;;8.20;91.00;;;;;;4985673;28;20286;-86
2021/01/30 00:03:20;;;;;;;3.93;1.67;;;8.20;90.90;;;;;;4985375;28;20199;-88
2021/01/30 00:05:46;;;;;;;5.60;1.70;;;8.30;90.70;;;;;;4985396;28;20218;-87
2021/01/30 00:08:14;;;;;;;2.73;1.93;;;8.30;91.30;;;;;;4985187;28;20195;-86
2021/01/30 00:10:40;;;;;;;3.50;1.70;;;8.30;92.00;;;;;;4985236;28;20179;-87
2021/01/30 00:13:07;;;;;;;2.60;1.57;;;8.30;91.40;;;;;;4987079;28;20191;-86
2021/01/30 00:15:33;;;;;;;2.17;1.47;;;8.20;91.60;;;;;;4993633;28;20198;-87
2021/01/30 00:17:59;;;;;;;3.13;1.73;;;8.30;91.10;;;;;;5004523;28;20206;-86
2021/01/30 00:20:30;;;;;;;3.63;1.80;;;8.30;92.30;;;;;;5004040;28;20186;-86
2021/01/30 00:22:57;;;;;;;4.43;2.00;;;8.20;90.80;;;;;;5004018;28;20210;-84
2021/01/30 00:25:26;;;;;;;4.07;1.60;;;8.30;91.00;;;;;;5003627;28;20217;-85
2021/01/30 00:27:52;;;;;;;3.13;1.70;;;8.30;90.70;;;;;;5005276;28;20218;-86
2021/01/30 00:30:24;;;;;;;3.47;1.70;;;8.20;91.90;;;;;;5007274;28;20672;-86
2021/01/30 00:32:50;;;;;;;3.50;1.77;;;8.10;91.10;;;;;;5007844;28;20174;-86
2021/01/30 00:35:19;;;;;;;3.70;1.80;;;8.20;90.60;;;;;;5007974;28;20189;-86
2021/01/30 00:37:44;;;;;;;3.50;2.00;;;8.20;90.90;;;;;;5007956;28;20195;-85
2021/01/30 00:40:11;;;;;;;3.97;1.60;;;8.20;90.80;;;;;;5004535;28;20194;-86
2021/01/30 00:42:36;;;;;;;3.03;1.70;;;8.10;91.80;;;;;;5006799;28;20193;-86
2021/01/30 00:45:07;;;;;;;3.77;1.80;;;8.20;91.70;;;;;;4988594;28;20183;-85
2021/01/30 00:47:33;;;;;;;3.47;1.60;;;8.20;91.10;;;;;;4988409;28;20198;-87
2021/01/30 00:49:59;;;;;;;4.00;2.00;;;8.20;90.20;;;;;;4988406;28;20196;-86
2021/01/30 00:52:25;;;;;;;4.03;2.10;;;8.20;90.60;;;;;;4992527;28;20222;-88
2021/01/30 00:54:52;;;;;;;4.07;1.97;;;8.20;90.60;;;;;;5011090;28;20245;-87
2021/01/30 00:57:18;;;;;;;2.10;1.87;;;8.20;90.50;;;;;;5006491;28;20202;-85
2021/01/30 00:59:45;;;;;;;3.43;1.60;;;8.20;90.00;;;;;;5007303;28;20239;-86
2021/01/30 01:02:12;;;;;;;4.03;1.73;;;8.20;90.10;;;;;;5006622;28;20201;-87
2021/01/30 01:04:38;;;;;;;3.90;1.80;;;8.20;90.50;;;;;;5007288;28;20202;-87
2021/01/30 01:07:04;;;;;;;1.73;1.40;;;8.20;90.20;;;;;;5001927;28;20222;-88
2021/01/30 01:09:30;;;;;;;2.43;1.50;;;8.20;89.70;;;;;;4988147;28;20194;-85
2021/01/30 01:11:59;;;;;;;3.87;1.90;;;8.20;89.70;;;;;;4987148;28;20178;-86
2021/01/30 01:14:26;;;;;;;4.00;1.40;;;8.10;90.20;;;;;;4985842;28;20219;-86
2021/01/30 01:16:52;;;;;;;2.37;1.50;;;8.20;89.30;;;;;;4987590;28;20227;-86
2021/01/30 01:19:18;;;;;;;1.50;1.40;;;8.10;89.70;;;;;;5003515;28;20616;-86
2021/01/30 01:21:47;;;;;;;3.07;1.60;;;8.10;89.50;;;;;;5021727;28;20194;-87
2021/01/30 01:24:14;;;;;;;3.93;1.40;;;8.20;89.20;;;;;;5006612;28;20261;-86
2021/01/30 01:26:44;;;;;;;2.60;1.50;;;8.20;88.80;;;;;;5006147;28;20237;-86
2021/01/30 01:29:11;;;;;;;2.30;1.63;;;8.10;90.40;;;;;;5021867;28;20178;-86
2021/01/30 01:31:37;;;;;;;3.67;1.60;;;8.10;90.20;;;;;;5006307;28;20197;-86
2021/01/30 01:34:02;;;;;;;3.03;1.97;;;8.20;89.50;;;;;;5006765;28;20179;-87
2021/01/30 01:36:28;;;;;;;2.37;1.57;;;8.10;90.20;;;;;;5005183;28;20197;-86
2021/01/30 01:38:54;;;;;;;3.03;1.70;;;8.00;90.80;;;;;;4985955;28;20175;-86
2021/01/30 01:41:19;;;;;;;4.97;1.83;;;8.10;90.90;;;;;;4987439;28;20234;-86
2021/01/30 01:43:45;;;;;;;2.63;1.70;;;8.10;90.90;;;;;;4986715;28;20194;-87
2021/01/30 01:46:11;;;;;;;3.43;1.40;;;8.00;91.90;;;;;;4986977;28;20218;-87
2021/01/30 01:48:57;;;;;;;2.33;1.40;;;8.00;91.70;;;;;;4990485;28;20208;-86
2021/01/30 01:51:30;;;;;;;1.50;1.40;;;7.90;92.30;;;;;;4987001;28;20234;-86
2021/01/30 01:54:03;;;;;;;2.40;1.40;;;7.80;93.20;;;;;;4986652;28;20179;-86
2021/01/30 01:56:31;;;;;;;4.80;1.70;;;7.80;93.70;;;;;;4986545;28;20221;-86
2021/01/30 01:59:02;;;;;;;3.17;1.70;;;7.70;94.30;;;;;;4986975;28;20198;-87
2021/01/30 02:01:31;;;;;;;3.10;1.90;;;7.70;94.50;;;;;;4986602;28;20193;-86
2021/01/30 02:03:58;;;;;;;3.83;2.10;;;7.70;95.10;;;;;;4987626;28;20194;-86
2021/01/30 02:06:24;;;;;;;3.23;1.97;;;7.80;94.90;;;;;;4985445;28;20218;-87
2021/01/30 02:08:50;;;;;;;4.67;2.20;;;7.70;96.00;;;;;;4987477;28;20187;-87
2021/01/30 02:11:17;;;;;;;3.97;2.40;;;7.70;96.10;;;;;;4986979;28;20635;-86
2021/01/30 02:13:50;;;;;;;2.47;1.80;;;7.70;96.00;;;;;;4986740;28;20187;-87
2021/01/30 02:16:25;;;;;;;2.63;2.10;;;7.80;95.30;;;;;;4986791;28;20269;-87
2021/01/30 02:18:59;;;;;;;3.30;2.10;;;7.70;96.10;;;;;;5006937;28;20178;-86
2021/01/30 02:21:40;;;;;;;5.23;1.90;;;7.60;97.50;;;;;;5006789;28;20241;-86
2021/01/30 02:24:27;;;;;;;4.90;2.30;;;7.60;98.00;;;;;;5006559;28;20174;-86
2021/01/30 02:27:03;;;;;;;2.80;1.40;;;7.50;98.60;;;;;;5005663;28;20210;-88
2021/01/30 02:29:47;;;;;;;1.97;1.30;;;7.50;98.80;;;;;;5006232;28;20162;-86
2021/01/30 02:32:26;;;;;;;1.63;1.50;;;7.60;97.70;;;;;;5003914;28;20170;-86
2021/01/30 02:35:24;;;;;;;3.20;1.80;;;7.60;97.70;;;;;;5003775;28;20931;-87
2021/01/30 02:38:00;;;;;;;6.67;1.70;;;7.50;98.00;;;;;;4998358;28;20202;-87
2021/01/30 02:40:29;;;;;;;2.60;1.87;;;7.50;99.20;;;;;;5005806;28;20625;-86
2021/01/30 02:43:04;;;;;;;1.97;1.63;;;7.40;99.80;;;;;;5006254;28;20187;-87
2021/01/30 02:45:34;;;;;;;2.63;1.70;;;7.40;99.90;;;;;;5003254;28;20229;-86
2021/01/30 02:48:22;;;;;;;4.20;1.70;;;7.40;99.90;;;;;;4987147;28;20218;-85
2021/01/30 02:50:51;;;;;;;4.17;1.83;;;7.30;99.90;;;;;;5000758;28;20630;-85
2021/01/30 02:53:24;;;;;;;3.73;1.87;;;7.30;99.90;;;;;;4992652;28;20645;-85
2021/01/30 02:55:55;;;;;;;3.23;2.10;;;7.20;99.90;;;;;;5004834;28;20181;-86
2021/01/30 02:58:26;;;;;;;2.27;2.07;;;7.30;99.90;;;;;;4999796;28;20234;-86
2021/01/30 03:00:57;;;;;;;3.33;2.23;;;7.30;99.90;;;;;;4986889;28;20234;-87
2021/01/30 03:03:23;;;;;;;3.27;1.90;;;7.20;99.90;;;;;;4986608;28;20244;-87
2021/01/30 03:05:51;;;;;;;3.37;1.87;;;7.20;99.90;;;;;;4986307;28;20270;-86
2021/01/30 03:08:19;;;;;;;3.87;1.93;;;7.20;99.90;;;;;;5001039;28;20310;-87
2021/01/30 03:11:04;;;;;;;3.23;2.03;;;7.20;99.90;;;;;;4986753;28;20203;-85
2021/01/30 03:13:40;;;;;;;3.93;2.50;;;7.10;99.90;;;;;;4985925;28;20557;-87
2021/01/30 03:16:13;;;;;;;3.37;2.40;;;7.10;99.90;;;;;;5001857;28;20196;-86
2021/01/30 03:18:48;;;;;;;3.17;2.40;;;7.10;99.90;;;;;;5007057;28;20265;-87
2021/01/30 03:21:16;;;;;;;5.57;2.70;;;7.20;99.90;;;;;;5007308;28;20249;-88
2021/01/30 03:23:42;;;;;;;4.47;2.80;;;7.10;99.90;;;;;;5006938;28;20190;-86
2021/01/30 03:26:13;;;;;;;4.57;2.83;;;7.10;99.90;;;;;;5007016;28;20312;-87
2021/01/30 03:28:39;;;;;;;4.27;2.60;;;7.10;99.90;;;;;;5007138;28;20297;-87
2021/01/30 03:31:05;;;;;;;5.20;2.93;;;7.10;99.90;;;;;;5005491;28;20182;-87
2021/01/30 03:33:31;;;;;;;4.57;2.80;;;7.10;99.90;;;;;;5006776;28;20174;-87
2021/01/30 03:35:56;;;;;;;2.57;2.10;;;7.10;99.90;;;;;;5007018;28;20186;-86
2021/01/30 03:38:22;;;;;;;3.50;2.23;;;7.10;99.90;;;;;;5006713;28;20206;-87
2021/01/30 03:40:48;;;;;;;3.60;1.77;;;7.10;99.90;;;;;;5006695;28;20209;-86
2021/01/30 03:43:15;;;;;;;3.10;1.50;;;7.10;99.90;;;;;;5007038;28;20197;-87
2021/01/30 03:45:41;;;;;;;1.93;1.50;;;7.20;99.90;;;;;;5006921;28;20229;-86
2021/01/30 03:48:07;;;;;;;4.53;1.80;;;7.10;99.90;;;;;;4995328;28;20215;-87
2021/01/30 03:50:33;;;;;;;4.47;1.60;;;7.10;99.90;;;;;;4987024;28;20180;-87
2021/01/30 03:53:00;;;;;;;4.00;1.63;;;7.10;99.90;;;;;;4992058;28;20174;-86
2021/01/30 03:55:26;;;;;;;2.03;1.47;;;7.20;99.90;;;;;;5004765;28;20186;-86
2021/01/30 03:57:53;;;;;;;2.43;1.47;;;7.20;99.90;;;;;;4985687;28;20206;-87
2021/01/30 04:00:22;;;;;;;2.57;1.43;;;7.30;99.90;;;;;;4986106;28;20358;-88
2021/01/30 04:02:49;;;;;;;3.47;1.50;;;7.20;99.90;;;;;;4988283;28;20673;-86
2021/01/30 04:05:21;;;;;;;2.80;1.40;;;7.20;99.90;;;;;;4991412;28;20206;-86
2021/01/30 04:07:48;;;;;;;2.27;1.50;;;7.30;99.90;;;;;;5005968;28;20728;-86
2021/01/30 04:10:29;;;;;;;2.53;1.50;;;7.30;99.90;;;;;;4991344;28;20175;-86
2021/01/30 04:12:56;;;;;;;3.63;1.43;;;7.30;99.90;;;;;;4991070;28;20171;-85
2021/01/30 04:15:26;;;;;;;3.83;1.63;;;7.20;99.90;;;;;;5006290;28;20183;-85
2021/01/30 04:17:52;;;;;;;4.57;1.40;;;7.30;99.90;;;;;;4991035;28;20203;-85
2021/01/30 04:20:18;;;;;;;4.17;1.73;;;7.40;98.10;;;;;;4992002;28;20197;-85
2021/01/30 04:22:44;;;;;;;2.73;1.67;;;7.40;98.40;;;;;;5006482;28;20241;-85
2021/01/30 04:25:11;;;;;;;2.93;1.50;;;7.40;97.60;;;;;;5011264;28;20194;-85
2021/01/30 04:27:37;;;;;;;7.50;2.00;;;7.50;96.40;;;;;;5010980;28;20205;-84
2021/01/30 04:30:05;;;;;;;5.27;2.10;;;7.50;96.80;;;;;;5010438;28;20481;-83
2021/01/30 04:32:31;;;;;;;1.90;1.63;;;7.50;96.60;;;;;;5011031;28;20170;-85
2021/01/30 04:34:56;;;;;;;1.93;1.50;;;7.40;96.70;;;;;;5010627;28;20178;-85
2021/01/30 04:37:22;;;;;;;3.33;1.80;;;7.50;96.10;;;;;;5014703;28;20226;-86
2021/01/30 04:39:48;;;;;;;4.40;1.83;;;7.50;96.20;;;;;;5003795;28;20258;-85
2021/01/30 04:42:19;;;;;;;3.50;1.70;;;7.50;96.60;;;;;;4993254;28;20205;-86
2021/01/30 04:45:03;;;;;;;4.27;2.20;;;7.50;96.40;;;;;;5008193;28;20232;-85
2021/01/30 04:47:51;;;;;;;6.33;1.83;;;7.40;95.50;;;;;;5009156;28;20252;-82
2021/01/30 04:50:31;;;;;;;8.17;1.90;;;7.40;96.20;;;;;;5009230;28;20165;-85
2021/01/30 04:53:21;;;;;;;6.23;1.90;;;7.40;95.30;;;;;;5009174;28;20545;-83
2021/01/30 04:55:58;;;;;;;4.20;2.00;;;7.40;95.10;;;;;;5015134;28;20203;-85
2021/01/30 04:58:46;;;;;;;5.37;1.90;;;7.50;94.00;;;;;;4996439;28;20213;-84
2021/01/30 05:01:20;;;;;;;3.97;2.00;;;7.50;94.20;;;;;;5008972;28;20201;-85
2021/01/30 05:04:05;;;;;;;6.87;2.10;;;7.40;94.20;;;;;;5009080;28;20253;-85
2021/01/30 05:07:03;;;;;;;4.87;1.97;;;7.40;93.90;;;;;;5008936;28;20194;-86
2021/01/30 05:09:40;;;;;;;5.67;2.70;;;7.40;93.90;;;;;;5008949;28;20162;-84
2021/01/30 05:12:15;;;;;;;5.00;2.10;;;7.50;94.30;;;;;;5023700;28;20182;-85
2021/01/30 05:14:56;;;;;;;3.57;1.70;;;7.50;93.20;;;;;;5008596;28;20154;-85
2021/01/30 05:17:26;;;;;;;4.87;2.07;;;7.40;94.00;;;;;;5008694;28;20194;-84
2021/01/30 05:20:01;;;;;;;8.33;2.30;;;7.40;93.50;;;;;;5008087;28;20173;-84
2021/01/30 05:22:34;;;;;;;7.17;2.63;;;7.50;93.30;;;;;;5008489;28;20185;-85
2021/01/30 05:25:02;;;;;;;4.87;2.47;;;7.40;92.80;;;;;;5008358;28;20615;-85
2021/01/30 05:27:40;;;;;;;8.13;2.17;;;7.40;92.70;;;;;;5008539;28;20696;-85
2021/01/30 05:30:09;;;;;;;8.30;2.27;;;7.50;92.50;;;;;;5024424;28;20166;-85
2021/01/30 05:32:46;;;;;;;6.23;2.00;;;7.40;92.00;;;;;;5008297;28;20244;-84
2021/01/30 05:35:19;;;;;;;2.93;2.07;;;7.40;93.00;;;;;;5009056;28;20163;-85
2021/01/30 05:37:55;;;;;;;7.27;2.00;;;7.50;92.00;;;;;;5008633;28;20203;-86
2021/01/30 05:40:42;;;;;;;10.57;2.50;;;7.50;91.80;;;;;;5009093;28;20562;-85
2021/01/30 05:43:54;;;;;;;6.27;2.80;;;7.40;92.50;;;;;;5008985;28;20638;-84
2021/01/30 05:46:28;;;;;;;7.10;2.37;;;7.50;91.30;;;;;;5017901;28;20230;-84
2021/01/30 05:48:55;;;;;;;7.83;2.40;;;7.50;91.50;;;;;;5009486;28;20695;-85
2021/01/30 05:51:35;;;;;;;9.93;2.40;;;7.50;91.70;;;;;;5008697;28;20213;-85
2021/01/30 05:54:01;;;;;;;6.40;2.17;;;7.50;90.70;;;;;;5007455;28;20178;-85
2021/01/30 05:56:41;;;;;;;4.60;2.20;;;7.50;90.60;;;;;;5023116;28;20197;-86
2021/01/30 05:59:13;;;;;;;5.30;2.20;;;7.50;90.90;;;;;;5023657;28;20182;-85
2021/01/30 06:01:39;;;;;;;6.40;2.87;;;7.50;90.80;;;;;;5017443;28;20183;-85
2021/01/30 06:04:08;;;;;;;6.23;2.40;;;7.40;90.60;;;;;;4989323;28;20524;-85
2021/01/30 06:07:01;;;;;;;6.67;2.47;;;7.50;89.40;;;;;;4989347;28;20238;-84
2021/01/30 06:09:42;;;;;;;8.40;2.73;;;7.60;89.60;;;;;;5004172;28;20195;-86
2021/01/30 06:12:32;;;;;;;5.53;2.63;;;7.60;89.30;;;;;;4989393;28;20179;-84
2021/01/30 06:15:22;;;;;;;5.40;2.40;;;7.50;88.10;;;;;;5003094;28;20179;-84
2021/01/30 06:17:48;;;;;;;8.57;2.53;;;7.50;88.60;;;;;;5007816;28;20774;-85
2021/01/30 06:20:19;;;;;;;4.97;2.23;;;7.50;89.00;;;;;;5008421;28;20186;-84
2021/01/30 06:23:05;;;;;;;6.60;2.90;;;7.50;88.80;;;;;;5022969;28;20248;-84
2021/01/30 06:25:40;;;;;;;6.77;3.07;;;7.50;89.30;;;;;;5008133;28;20206;-85
2021/01/30 06:28:28;;;;;;;6.30;2.53;;;7.50;89.00;;;;;;5000341;28;20214;-85
2021/01/30 06:31:07;;;;;;;7.90;3.33;;;7.50;89.20;;;;;;4994713;28;20172;-85
2021/01/30 06:33:36;;;;;;;10.53;3.00;;;7.40;89.20;;;;;;4984360;28;20235;-85
2021/01/30 06:36:24;;;;;;;6.90;2.77;;;7.40;90.10;;;;;;4983052;28;20211;-85
2021/01/30 06:38:52;;;;;;;7.33;3.50;;;7.40;89.80;;;;;;4984005;28;20171;-85
2021/01/30 06:41:23;;;;;;;8.67;3.73;;;7.40;89.90;;;;;;4983622;28;20183;-85
2021/01/30 06:44:19;;;;;;;13.60;4.10;;;7.40;89.40;;;;;;4985044;28;20266;-84
2021/01/30 06:47:10;;;;;;;8.70;4.00;;;7.40;89.80;;;;;;4985832;28;20215;-86
2021/01/30 06:49:51;;;;;;;11.50;3.97;;;7.40;89.90;;;;;;5017476;28;20182;-86
2021/01/30 06:52:22;;;;;;;11.27;4.43;;;7.40;89.70;;;;;;5002769;28;20166;-84
2021/01/30 06:55:06;;;;;;;12.17;4.00;;;7.40;90.70;;;;;;4983708;28;20186;-85
2021/01/30 06:57:33;;;;;;;8.10;3.87;;;7.50;90.60;;;;;;4983779;28;20274;-86
2021/01/30 07:00:07;;;;;;;10.63;3.43;;;7.50;90.30;;;;;;4984581;28;20182;-85
2021/01/30 07:02:38;;;;;;;8.80;3.60;;;7.40;91.10;;;;;;4983368;28;20187;-84
2021/01/30 07:05:27;;;;;;;11.10;3.40;;;7.50;90.30;;;;;;4983066;28;20207;-85
2021/01/30 07:08:17;;;;;;;10.57;4.10;;;7.50;91.20;;;;;;4983125;28;20206;-88
2021/01/30 07:11:02;;;;;;;13.03;4.20;;;7.50;91.10;;;;;;4981989;28;20178;-87
2021/01/30 07:13:35;;;;;;;11.30;3.53;;;7.50;91.30;;;;;;4998442;28;20172;-87
2021/01/30 07:16:13;;;;;;;7.97;3.50;;;7.60;91.10;;;;;;4997132;28;20178;-87
2021/01/30 07:19:11;;;;;;;8.80;3.33;;;7.50;91.50;;;;;;5014360;28;20759;-86
2021/01/30 07:21:45;;;;;;;8.77;3.40;;;7.40;92.30;;;;;;5009065;28;20225;-89
2021/01/30 07:24:25;;;;;;;6.30;3.23;;;7.40;91.90;;;;;;5000134;28;20178;-89
2021/01/30 07:26:57;;;;;;;6.93;3.30;;;7.60;90.90;;;;;;4995041;28;20542;-88
2021/01/30 07:29:44;;;;;;;8.83;3.00;;;7.70;90.80;;;;;;4982805;28;20187;-85
2021/01/30 07:32:34;;;;;;;8.00;3.13;;;7.60;90.70;;;;;;4982948;28;20198;-85
2021/01/30 07:35:02;;;;;;;8.43;3.07;;;7.60;90.30;;;;;;5001796;28;20186;-85
2021/01/30 07:37:40;;;;;;;10.43;3.60;;;7.80;89.90;;;;;;4993696;28;20206;-86
2021/01/30 07:40:17;;;;;;;11.40;4.33;;;7.70;90.30;;;;;;4987888;28;20265;-85
2021/01/30 07:43:17;;;;;;;12.13;4.00;;;7.60;91.10;;;;;;5021087;28;20194;-85
2021/01/30 07:46:03;;;;;;;9.50;4.17;;;7.70;91.90;;;;;;5008090;28;20222;-86
2021/01/30 07:48:33;;;;;;;10.63;3.83;;;7.70;90.90;;;;;;5006281;28;20213;-85
2021/01/30 07:51:09;;;;;;;11.60;4.53;;;7.70;92.40;;;;;;4998379;28;20233;-85
2021/01/30 07:53:36;;;;;;;10.83;4.03;;;7.70;91.10;;;;;;5001708;28;20182;-86
2021/01/30 07:56:22;;;;;;;10.13;4.50;;;7.70;91.10;;;;;;4998407;28;20189;-86
2021/01/30 07:59:06;;;;;;;9.37;4.70;;;7.80;90.40;;;;;;4998421;28;20573;-85
2021/01/30 08:02:12;;;;;;;12.20;4.20;;;7.80;91.30;;;;;;5007272;28;20269;-85
2021/01/30 08:05:06;;;;;;;11.57;4.73;;;7.70;92.10;;;;;;5003677;28;20178;-85
2021/01/30 08:07:56;;;;;;;11.30;4.30;;;7.80;91.70;;;;;;5003800;28;20194;-85
2021/01/30 08:10:45;;;;;;;11.17;4.73;;;7.80;91.80;;;;;;5006002;28;20205;-85
2021/01/30 08:13:29;;;;;;;9.40;4.77;;;7.80;91.50;;;;;;5015753;28;20236;-85
2021/01/30 08:16:05;;;;;;;11.23;4.13;;;7.80;91.90;;;;;;5014088;28;20170;-84
2021/01/30 08:18:45;;;;;;;10.60;4.30;;;7.80;91.80;;;;;;4997761;28;20202;-84
2021/01/30 08:21:30;;;;;;;9.57;4.43;;;7.80;92.10;;;;;;5008088;28;20182;-85
2021/01/30 08:24:02;;;;;;;9.27;4.37;;;7.90;92.60;;;;;;4999856;28;20198;-86
2021/01/30 08:26:29;;;;;;;11.40;4.23;;;7.80;93.00;;;;;;4993781;28;20222;-85
2021/01/30 08:29:15;;;;;;;10.33;4.43;;;7.80;93.00;;;;;;5000155;28;20249;-85
2021/01/30 08:32:00;;;;;;;9.03;3.43;;;7.80;92.60;;;;;;4985065;28;20199;-84
2021/01/30 08:34:33;;;;;;;12.90;3.80;;;7.80;93.30;;;;;;4999038;28;20201;-86
2021/01/30 08:37:12;;;;;;;7.67;3.43;;;7.90;92.50;;;;;;4994943;28;20230;-85
2021/01/30 08:40:01;;;;;;;7.90;3.37;;;7.90;92.10;;;;;;5000185;28;20197;-85
2021/01/30 08:42:30;;;;;;;13.53;3.70;;;7.90;92.00;;;;;;4991541;28;20225;-85
2021/01/30 08:44:58;;;;;;;10.47;4.30;;;7.90;92.40;;;;;;5000065;28;20195;-85
2021/01/30 08:47:27;;;;;;;8.97;3.50;;;7.90;92.80;;;;;;4994584;28;20222;-85
2021/01/30 08:50:24;;;;;;;9.57;3.67;;;7.90;92.20;;;;;;5001119;28;20182;-84
2021/01/30 08:52:53;;;;;;;8.30;3.20;;;7.90;92.50;;;;;;5006152;28;20178;-86
2021/01/30 08:55:31;;;;;;;10.57;4.23;;;8.00;91.60;;;;;;4996970;28;20641;-85
2021/01/30 08:57:57;;;;;;;12.80;3.53;;;8.00;92.30;;;;;;4977451;28;20796;-86
2021/01/30 09:00:25;;;;;;;9.17;3.60;;;8.00;92.10;;;;;;4990956;28;20337;-86
2021/01/30 09:02:54;;;;;;;15.50;4.07;;;8.00;93.00;;;;;;5002399;28;20215;-86
2021/01/30 09:05:20;;;;;;;11.50;3.67;;;7.90;92.90;;;;;;5020690;28;20553;-85
2021/01/30 09:08:20;;;;;;;12.07;4.27;;;7.80;94.70;;;;;;5011100;28;20207;-85
2021/01/30 09:10:46;;;;;;;17.27;4.73;;;7.90;95.20;;;;;;5001311;28;20225;-85
2021/01/30 09:13:18;;;;;;;12.30;3.90;;;7.90;96.00;;;;;;4997543;28;20186;-85
2021/01/30 09:15:46;;;;;;;11.03;3.80;;;7.80;96.80;;;;;;4989635;28;20210;-91
2021/01/30 09:18:31;;;;;;;7.80;3.10;;;7.70;97.50;;;;;;5000367;28;20205;-86
2021/01/30 09:21:18;;;;;;;10.27;4.53;;;7.80;97.30;;;;;;4994265;28;20183;-88
2021/01/30 09:24:02;;;;;;;9.93;3.70;;;7.90;96.90;;;;;;5000430;28;20246;-88
2021/01/30 09:26:33;;;;;;;15.90;4.07;;;7.80;97.90;;;;;;5001319;28;20228;-85
2021/01/30 09:29:01;;;;;;;14.13;3.70;;;7.80;98.90;;;;;;4994243;28;20210;-86
2021/01/30 09:31:28;;;;;;;12.43;3.80;;;7.80;97.70;;;;;;4993082;28;20193;-86
2021/01/30 09:34:00;;;;;;;12.63;4.17;;;7.90;98.20;;;;;;4995690;28;20182;-86
2021/01/30 09:36:51;;;;;;;9.13;4.03;;;7.80;98.70;;;;;;4982040;28;20227;-86
2021/01/30 09:39:37;;;;;;;9.30;3.20;;;7.90;98.70;;;;;;5005794;28;20665;-85
2021/01/30 09:42:20;;;;;;;10.40;3.87;;;7.80;99.30;;;;;;4988120;28;20240;-85
2021/01/30 09:44:49;;;;;;;10.40;4.53;;;7.80;98.30;;;;;;4989794;28;20190;-86
2021/01/30 09:47:21;;;;;;;9.90;3.67;;;7.90;98.80;;;;;;4999740;28;20214;-86
2021/01/30 09:50:12;;;;;;;9.77;4.00;;;7.80;99.90;;;;;;4999949;28;20217;-87
2021/01/30 09:52:47;;;;;;;12.23;4.33;;;7.80;99.40;;;;;;4997949;28;20179;-86
2021/01/30 09:55:13;;;;;;;9.57;3.87;;;8.00;99.20;;;;;;4999862;28;20185;-85
2021/01/30 09:57:42;;;;;;;9.87;3.67;;;7.90;99.70;;;;;;4995022;28;20249;-86
2021/01/30 10:00:34;;;;;;;9.70;4.33;;;7.90;99.60;;;;;;4994867;28;20183;-86
2021/01/30 10:03:16;;;;;;;8.87;3.67;;;8.00;98.80;;;;;;4992641;28;20182;-86
2021/01/30 10:05:43;;;;;;;12.77;4.60;;;8.00;99.50;;;;;;4995750;28;20206;-87
2021/01/30 10:08:21;;;;;;;15.43;4.37;;;7.90;99.90;;;;;;4993831;28;20222;-86
2021/01/30 10:10:46;;;;;;;6.60;3.50;;;8.00;98.70;;;;;;4995348;28;20197;-86
2021/01/30 10:13:16;;;;;;;9.33;3.80;;;8.10;98.90;;;;;;5000362;28;20194;-87
2021/01/30 10:15:50;;;;;;;13.63;4.07;;;8.10;98.30;;;;;;4993910;28;20214;-87
2021/01/30 10:18:19;;;;;;;13.60;4.53;;;8.00;99.50;;;;;;4992822;28;20778;-87
2021/01/30 10:20:56;;;;;;;6.73;3.83;;;8.00;99.40;;;;;;4996096;28;20289;-87
2021/01/30 10:23:45;;;;;;;12.57;4.30;;;7.90;99.90;;;;;;4975875;28;20346;-87
2021/01/30 10:26:29;;;;;;;12.47;4.07;;;8.10;98.90;;;;;;4990325;28;20221;-86
2021/01/30 10:29:01;;;;;;;12.43;4.47;;;8.00;99.00;;;;;;4988435;28;20244;-88
2021/01/30 10:31:40;;;;;;;7.70;4.10;;;7.90;99.90;;;;;;4991619;28;20191;-88
2021/01/30 10:34:29;;;;;;;11.53;3.77;;;8.00;99.90;;;;;;4992961;28;20187;-87
2021/01/30 10:37:01;;;;;;;11.97;3.67;;;8.00;99.90;;;;;;4987019;28;20210;-88
2021/01/30 10:39:33;;;;;;;12.53;4.10;;;8.00;99.90;;;;;;4988637;28;20676;-88
2021/01/30 10:42:06;;;;;;;10.77;4.80;;;8.10;99.90;;;;;;4987859;28;20191;-88
2021/01/30 10:44:34;;;;;;;9.47;3.87;;;8.10;99.90;;;;;;4989313;28;20662;-88
2021/01/30 10:47:03;;;;;;;9.70;3.70;;;8.20;99.50;;;;;;4991770;28;20767;-88
2021/01/30 10:49:36;;;;;;;9.13;3.30;;;8.20;99.90;;;;;;4999512;28;20210;-87
2021/01/30 10:52:10;;;;;;;8.40;3.70;;;8.30;99.90;;;;;;5013321;28;20747;-87
2021/01/30 10:54:39;;;;;;;10.37;4.00;;;8.40;99.30;;;;;;5004400;28;20559;-85
2021/01/30 10:57:17;;;;;;;8.93;3.70;;;8.30;99.90;;;;;;5002062;28;20309;-88
2021/01/30 10:59:52;;;;;;;15.23;4.53;;;8.20;99.90;;;;;;5005953;28;20270;-87
2021/01/30 11:02:38;;;;;;;14.30;4.57;;;8.10;99.90;;;;;;4993283;28;20261;-88
2021/01/30 11:05:10;;;;;;;10.30;4.03;;;8.10;99.90;;;;;;5002411;28;20727;-86
2021/01/30 11:07:43;;;;;;;9.13;4.17;;;8.20;99.90;;;;;;4998607;28;20723;-87
2021/01/30 11:10:39;;;;;;;12.77;4.40;;;8.30;99.90;;;;;;4997667;28;20198;-87
2021/01/30 11:13:12;;;;;;;11.27;4.73;;;8.20;99.90;;;;;;4998376;28;20186;-88
2021/01/30 11:15:42;;;;;;;12.60;5.00;;;8.20;99.90;;;;;;5005172;28;20195;-88
2021/01/30 11:18:14;;;;;;;12.60;5.50;;;8.20;99.90;;;;;;4999902;28;20209;-88
2021/01/30 11:20:43;;;;;;;10.90;4.93;;;8.10;99.90;;;;;;5002087;28;20195;-88
2021/01/30 11:23:09;;;;;;;10.43;5.13;;;8.10;99.90;;;;;;4998447;28;20224;-88
2021/01/30 11:25:39;;;;;;;13.07;5.03;;;8.10;99.90;;;;;;5005199;28;20242;-88
2021/01/30 11:28:05;;;;;;;10.67;4.80;;;8.00;99.90;;;;;;4994727;28;20215;-87
2021/01/30 11:30:32;;;;;;;9.07;4.07;;;8.10;99.90;;;;;;5006850;28;20653;-88
2021/01/30 11:33:09;;;;;;;12.60;5.27;;;8.10;99.90;;;;;;5003433;28;20201;-88
2021/01/30 11:35:43;;;;;;;9.53;4.20;;;8.10;99.90;;;;;;5000341;28;20198;-86
2021/01/30 11:38:18;;;;;;;12.87;4.63;;;8.20;99.90;;;;;;5007120;28;20272;-88
2021/01/30 11:40:45;;;;;;;9.20;4.77;;;8.30;99.90;;;;;;5003273;28;20212;-87
2021/01/30 11:43:13;;;;;;;13.30;4.63;;;8.20;99.90;;;;;;5001313;28;20262;-88
2021/01/30 11:45:39;;;;;;;11.10;4.13;;;8.20;99.90;;;;;;5004556;28;20212;-88
2021/01/30 11:48:05;;;;;;;11.53;4.20;;;8.30;99.90;;;;;;4998449;28;20255;-87
2021/01/30 11:50:32;;;;;;;10.03;4.53;;;8.30;99.90;;;;;;4990564;28;20195;-88
2021/01/30 11:53:16;;;;;;;10.50;4.80;;;8.30;99.90;;;;;;4994625;28;20554;-88
2021/01/30 11:55:44;;;;;;;9.43;4.63;;;8.30;99.90;;;;;;4997120;28;20190;-88
2021/01/30 11:58:10;;;;;;;11.60;5.17;;;8.50;99.90;;;;;;5001947;28;20210;-88
2021/01/30 12:00:36;;;;;;;12.13;5.00;;;8.60;99.90;;;;;;5015141;28;20185;-87
2021/01/30 12:03:03;;;;;;;9.00;4.20;;;8.70;99.90;;;;;;5009859;28;20191;-88
2021/01/30 12:05:30;;;;;;;10.17;4.17;;;8.70;99.90;;;;;;5001393;28;20213;-88
2021/01/30 12:07:56;;;;;;;9.70;3.87;;;8.70;99.90;;;;;;5000441;28;20210;-88
2021/01/30 12:10:22;;;;;;;7.43;3.53;;;8.90;99.90;;;;;;5005312;28;20232;-88
2021/01/30 12:12:48;;;;;;;9.17;3.43;;;8.80;99.00;;;;;;5006914;28;20198;-88
2021/01/30 12:15:14;;;;;;;6.17;3.47;;;8.90;99.90;;;;;;4996520;28;20225;-88
2021/01/30 12:17:45;;;;;;;11.27;4.00;;;9.00;98.40;;;;;;4998137;28;20270;-88
2021/01/30 12:20:19;;;;;;;6.23;3.20;;;8.90;98.10;;;;;;5002911;28;20183;-88
2021/01/30 12:22:48;;;;;;;14.27;3.80;;;8.70;98.30;;;;;;4999945;28;20696;-88
2021/01/30 12:25:15;;;;;;;9.30;4.00;;;8.80;99.40;;;;;;5008172;28;20265;-88
2021/01/30 12:27:47;;;;;;;7.73;3.90;;;8.80;98.60;;;;;;5012854;28;20277;-88
2021/01/30 12:30:13;;;;;;;6.63;4.57;;;8.90;97.80;;;;;;5021098;28;20186;-88
2021/01/30 12:32:39;;;;;;;10.30;4.13;;;8.80;98.30;;;;;;5009732;28;20189;-88
2021/01/30 12:35:06;;;;;;;5.60;3.57;;;8.80;99.50;;;;;;5029973;28;20209;-88
2021/01/30 12:37:35;;;;;;;6.87;3.10;;;8.80;99.00;;;;;;5004807;28;20214;-88
2021/01/30 12:40:02;;;;;;;8.37;4.60;;;8.80;97.70;;;;;;5012065;28;20191;-87
2021/01/30 12:42:28;;;;;;;7.40;3.20;;;8.90;98.70;;;;;;4999396;28;20669;-88
2021/01/30 12:44:53;;;;;;;9.77;3.70;;;8.90;97.70;;;;;;5015211;28;20192;-87
2021/01/30 12:47:26;;;;;;;5.93;3.37;;;8.90;98.60;;;;;;5006010;28;20725;-86
2021/01/30 12:49:52;;;;;;;6.43;3.13;;;9.00;99.50;;;;;;5000022;28;20213;-87
2021/01/30 12:52:18;;;;;;;7.87;3.70;;;9.00;99.90;;;;;;4999754;28;20187;-87
2021/01/30 12:54:43;;;;;;;5.47;3.40;;;9.00;98.90;;;;;;5001485;28;20221;-86
2021/01/30 12:57:09;;;;;;;5.13;3.53;;;9.00;99.40;;;;;;4998178;28;20210;-87
2021/01/30 12:59:35;;;;;;;7.00;3.60;;;9.10;99.20;;;;;;4999303;28;20187;-86
2021/01/30 13:02:01;;;;;;;8.13;3.87;;;9.10;99.90;;;;;;5009264;28;20214;-87
2021/01/30 13:04:27;;;;;;;8.70;4.80;;;9.10;99.90;;;;;;5001805;28;20201;-87
2021/01/30 13:06:52;;;;;;;6.00;3.87;;;9.00;99.90;;;;;;5007566;28;20219;-87
2021/01/30 13:09:20;;;;;;;8.43;3.70;;;9.00;99.90;;;;;;5008591;28;20186;-87
2021/01/30 13:11:47;;;;;;;7.73;3.33;;;9.20;98.90;;;;;;5005968;28;20240;-87
2021/01/30 13:14:13;;;;;;;6.63;2.77;;;9.20;99.30;;;;;;5000105;28;20429;-87
2021/01/30 13:16:39;;;;;;;8.20;3.10;;;9.30;98.40;;;;;;5000315;28;20197;-87
2021/01/30 13:19:05;;;;;;;6.00;3.07;;;9.20;97.90;;;;;;4999002;28;20192;-87
2021/01/30 13:21:32;;;;;;;5.13;3.27;;;9.30;98.20;;;;;;5008676;28;20291;-86
2021/01/30 13:23:59;;;;;;;4.67;3.00;;;9.20;97.90;;;;;;4999372;28;20689;-86
2021/01/30 13:26:25;;;;;;;8.37;3.33;;;9.10;98.30;;;;;;5004041;28;20269;-86